sensor_id;sensor_type;location;lat;lon;timestamp;temperature;humidity
31369;DHT22;18004;48.416;10.066;2023-04-01T00:00:52;7.90;99.90
31369;DHT22;18004;48.416;10.066;2023-04-01T00:03:19;7.80;99.90
31369;DHT22;18004;48.416;10.066;2023-04-01T00:05:46;7.80;99.90
31369;DHT22;18004;48.416;10.066;2023-04-01T00:08:12;7.80;99.90
31369;DHT22;18004;48.416;10.066;2023-04-01T00:10:38;7.80;99.90
31369;DHT22;18004;48.416;10.066;2023-04-01T00:13:04;7.80;99.90
31369;DHT22;18004;48.416;10.066;2023-04-01T00:15:30;7.80;99.90
31369;DHT22;18004;48.416;10.066;2023-04-01T00:17:56;7.80;99.90
31369;DHT22;18004;48.416;10.066;2023-04-01T00:20:22;7.80;99.90
31369;DHT22;18004;48.416;10.066;2023-04-01T00:22:48;7.70;99.90
31369;DHT22;18004;48.416;10.066;2023-04-01T00:25:16;7.70;99.90
31369;DHT22;18004;48.416;10.066;2023-04-01T00:27:42;7.80;99.90
31369;DHT22;18004;48.416;10.066;2023-04-01T00:30:08;7.70;99.90
31369;DHT22;18004;48.416;10.066;2023-04-01T00:32:34;7.70;99.90
31369;DHT22;18004;48.416;10.066;2023-04-01T00:35:01;7.70;99.90
31369;DHT22;18004;48.416;10.066;2023-04-01T00:37:27;7.70;99.90
31369;DHT22;18004;48.416;10.066;2023-04-01T00:39:54;7.70;99.90
31369;DHT22;18004;48.416;10.066;2023-04-01T00:42:20;7.70;99.90
31369;DHT22;18004;48.416;10.066;2023-04-01T00:44:53;7.60;99.90
31369;DHT22;18004;48.416;10.066;2023-04-01T00:47:21;7.60;99.90
31369;DHT22;18004;48.416;10.066;2023-04-01T00:49:50;7.60;99.90
31369;DHT22;18004;48.416;10.066;2023-04-01T00:52:23;7.60;99.90
31369;DHT22;18004;48.416;10.066;2023-04-01T00:54:53;7.60;99.90
31369;DHT22;18004;48.416;10.066;2023-04-01T00:57:51;7.50;99.90
31369;DHT22;18004;48.416;10.066;2023-04-01T01:00:17;7.50;99.90
31369;DHT22;18004;48.416;10.066;2023-04-01T01:02:45;7.60;99.90
31369;DHT22;18004;48.416;10.066;2023-04-01T01:05:15;7.60;99.90
31369;DHT22;18004;48.416;10.066;2023-04-01T01:07:45;7.60;99.90
31369;DHT22;18004;48.416;10.066;2023-04-01T01:10:24;7.50;99.90
31369;DHT22;18004;48.416;10.066;2023-04-01T01:13:11;7.50;99.90
31369;DHT22;18004;48.416;10.066;2023-04-01T01:15:55;7.50;99.90
31369;DHT22;18004;48.416;10.066;2023-04-01T01:18:34;7.50;99.90
31369;DHT22;18004;48.416;10.066;2023-04-01T01:21:30;7.40;99.90
31369;DHT22;18004;48.416;10.066;2023-04-01T01:27:08;7.40;99.90
31369;DHT22;18004;48.416;10.066;2023-04-01T01:38:27;7.40;99.90
31369;DHT22;18004;48.416;10.066;2023-04-01T01:40:55;7.40;99.90
31369;DHT22;18004;48.416;10.066;2023-04-01T01:43:25;7.30;99.90
31369;DHT22;18004;48.416;10.066;2023-04-01T01:45:58;7.30;99.90
31369;DHT22;18004;48.416;10.066;2023-04-01T01:48:26;7.30;99.90
31369;DHT22;18004;48.416;10.066;2023-04-01T01:50:53;7.30;99.90
31369;DHT22;18004;48.416;10.066;2023-04-01T01:53:19;7.30;99.90
31369;DHT22;18004;48.416;10.066;2023-04-01T01:55:47;7.20;99.90
31369;DHT22;18004;48.416;10.066;2023-04-01T01:58:30;7.20;99.90
31369;DHT22;18004;48.416;10.066;2023-04-01T02:01:00;7.20;99.90
31369;DHT22;18004;48.416;10.066;2023-04-01T02:03:30;7.20;99.90
31369;DHT22;18004;48.416;10.066;2023-04-01T02:05:59;7.20;99.90
31369;DHT22;18004;48.416;10.066;2023-04-01T02:08:39;7.20;99.90
31369;DHT22;18004;48.416;10.066;2023-04-01T02:11:09;7.20;99.90
31369;DHT22;18004;48.416;10.066;2023-04-01T02:16:36;7.10;99.90
31369;DHT22;18004;48.416;10.066;2023-04-01T02:19:05;7.10;99.90
31369;DHT22;18004;48.416;10.066;2023-04-01T02:21:35;7.10;99.90
31369;DHT22;18004;48.416;10.066;2023-04-01T02:24:05;7.10;99.90
31369;DHT22;18004;48.416;10.066;2023-04-01T02:26:33;7.10;99.90
31369;DHT22;18004;48.416;10.066;2023-04-01T02:29:01;7.10;99.90
31369;DHT22;18004;48.416;10.066;2023-04-01T02:31:27;7.10;99.90
31369;DHT22;18004;48.416;10.066;2023-04-01T02:33:54;7.10;99.90
31369;DHT22;18004;48.416;10.066;2023-04-01T02:36:20;7.10;99.90
31369;DHT22;18004;48.416;10.066;2023-04-01T02:38:46;7.10;99.90
31369;DHT22;18004;48.416;10.066;2023-04-01T02:41:13;7.10;99.90
31369;DHT22;18004;48.416;10.066;2023-04-01T02:43:39;7.20;99.90
31369;DHT22;18004;48.416;10.066;2023-04-01T02:46:05;7.10;99.90
31369;DHT22;18004;48.416;10.066;2023-04-01T02:48:30;7.10;99.90
31369;DHT22;18004;48.416;10.066;2023-04-01T02:50:56;7.10;99.90
31369;DHT22;18004;48.416;10.066;2023-04-01T02:53:22;7.10;99.90
31369;DHT22;18004;48.416;10.066;2023-04-01T02:55:48;7.00;99.90
31369;DHT22;18004;48.416;10.066;2023-04-01T02:58:16;6.90;99.90
31369;DHT22;18004;48.416;10.066;2023-04-01T03:00:42;6.90;99.90
31369;DHT22;18004;48.416;10.066;2023-04-01T03:03:08;7.00;99.90
31369;DHT22;18004;48.416;10.066;2023-04-01T03:05:34;6.90;99.90
31369;DHT22;18004;48.416;10.066;2023-04-01T03:08:01;6.90;99.90
31369;DHT22;18004;48.416;10.066;2023-04-01T03:10:26;6.90;99.90
31369;DHT22;18004;48.416;10.066;2023-04-01T03:12:52;6.90;99.90
31369;DHT22;18004;48.416;10.066;2023-04-01T03:15:18;6.90;99.90
31369;DHT22;18004;48.416;10.066;2023-04-01T03:17:44;7.00;99.90
31369;DHT22;18004;48.416;10.066;2023-04-01T03:20:10;7.00;99.90
31369;DHT22;18004;48.416;10.066;2023-04-01T03:22:37;7.00;99.90
31369;DHT22;18004;48.416;10.066;2023-04-01T03:25:04;6.90;99.90
31369;DHT22;18004;48.416;10.066;2023-04-01T03:27:30;6.90;99.90
31369;DHT22;18004;48.416;10.066;2023-04-01T03:29:56;6.90;99.90
31369;DHT22;18004;48.416;10.066;2023-04-01T03:32:21;6.90;99.90
31369;DHT22;18004;48.416;10.066;2023-04-01T03:34:47;6.90;99.90
31369;DHT22;18004;48.416;10.066;2023-04-01T03:37:13;6.90;99.90
31369;DHT22;18004;48.416;10.066;2023-04-01T03:39:39;6.90;99.90
31369;DHT22;18004;48.416;10.066;2023-04-01T03:42:05;6.90;99.90
31369;DHT22;18004;48.416;10.066;2023-04-01T03:44:33;6.90;99.90
31369;DHT22;18004;48.416;10.066;2023-04-01T03:46:59;6.80;99.90
31369;DHT22;18004;48.416;10.066;2023-04-01T03:49:25;6.80;99.90
31369;DHT22;18004;48.416;10.066;2023-04-01T03:51:51;6.80;99.90
31369;DHT22;18004;48.416;10.066;2023-04-01T03:54:17;6.80;99.90
31369;DHT22;18004;48.416;10.066;2023-04-01T03:56:43;6.80;99.90
31369;DHT22;18004;48.416;10.066;2023-04-01T03:59:09;6.80;99.90
31369;DHT22;18004;48.416;10.066;2023-04-01T04:01:35;6.70;99.90
31369;DHT22;18004;48.416;10.066;2023-04-01T04:04:01;6.70;99.90
31369;DHT22;18004;48.416;10.066;2023-04-01T04:06:27;6.70;99.90
31369;DHT22;18004;48.416;10.066;2023-04-01T04:08:53;6.70;99.90
31369;DHT22;18004;48.416;10.066;2023-04-01T04:11:20;6.70;99.90
31369;DHT22;18004;48.416;10.066;2023-04-01T04:13:46;6.60;99.90
31369;DHT22;18004;48.416;10.066;2023-04-01T04:16:14;6.60;99.90
31369;DHT22;18004;48.416;10.066;2023-04-01T04:18:40;6.60;99.90
31369;DHT22;18004;48.416;10.066;2023-04-01T04:21:06;6.60;99.90
31369;DHT22;18004;48.416;10.066;2023-04-01T04:23:32;6.60;99.90
31369;DHT22;18004;48.416;10.066;2023-04-01T04:26:02;6.60;99.90
31369;DHT22;18004;48.416;10.066;2023-04-01T04:28:28;6.60;99.90
31369;DHT22;18004;48.416;10.066;2023-04-01T04:30:54;6.60;99.90
31369;DHT22;18004;48.416;10.066;2023-04-01T04:33:24;6.50;99.90
31369;DHT22;18004;48.416;10.066;2023-04-01T04:35:51;6.60;99.90
31369;DHT22;18004;48.416;10.066;2023-04-01T04:38:17;6.60;99.90
31369;DHT22;18004;48.416;10.066;2023-04-01T04:40:44;6.60;99.90
31369;DHT22;18004;48.416;10.066;2023-04-01T04:43:14;6.60;99.90
31369;DHT22;18004;48.416;10.066;2023-04-01T04:45:41;6.60;99.90
31369;DHT22;18004;48.416;10.066;2023-04-01T04:48:11;6.60;99.90
31369;DHT22;18004;48.416;10.066;2023-04-01T04:50:44;6.50;99.90
31369;DHT22;18004;48.416;10.066;2023-04-01T04:53:12;6.60;99.90
31369;DHT22;18004;48.416;10.066;2023-04-01T04:55:42;6.60;99.90
31369;DHT22;18004;48.416;10.066;2023-04-01T04:58:08;6.60;99.90
31369;DHT22;18004;48.416;10.066;2023-04-01T05:00:33;6.60;99.90
31369;DHT22;18004;48.416;10.066;2023-04-01T05:02:59;6.60;99.90
31369;DHT22;18004;48.416;10.066;2023-04-01T05:05:25;6.60;99.90
31369;DHT22;18004;48.416;10.066;2023-04-01T05:07:51;6.50;99.90
31369;DHT22;18004;48.416;10.066;2023-04-01T05:10:17;6.50;99.90
31369;DHT22;18004;48.416;10.066;2023-04-01T05:12:42;6.50;99.90
31369;DHT22;18004;48.416;10.066;2023-04-01T05:15:08;6.50;99.90
31369;DHT22;18004;48.416;10.066;2023-04-01T05:17:34;6.50;99.90
31369;DHT22;18004;48.416;10.066;2023-04-01T05:20:00;6.50;99.90
31369;DHT22;18004;48.416;10.066;2023-04-01T05:22:26;6.50;99.90
31369;DHT22;18004;48.416;10.066;2023-04-01T05:24:52;6.50;99.90
31369;DHT22;18004;48.416;10.066;2023-04-01T05:27:18;6.50;99.90
31369;DHT22;18004;48.416;10.066;2023-04-01T05:29:44;6.50;99.90
31369;DHT22;18004;48.416;10.066;2023-04-01T05:32:10;6.50;99.90
31369;DHT22;18004;48.416;10.066;2023-04-01T05:34:35;6.50;99.90
31369;DHT22;18004;48.416;10.066;2023-04-01T05:37:01;6.50;99.90
31369;DHT22;18004;48.416;10.066;2023-04-01T05:39:27;6.50;99.90
31369;DHT22;18004;48.416;10.066;2023-04-01T05:41:53;6.50;99.90
31369;DHT22;18004;48.416;10.066;2023-04-01T05:44:18;6.60;99.90
31369;DHT22;18004;48.416;10.066;2023-04-01T05:46:44;6.70;99.90
31369;DHT22;18004;48.416;10.066;2023-04-01T05:49:10;6.70;99.90
31369;DHT22;18004;48.416;10.066;2023-04-01T05:51:36;6.80;99.90
31369;DHT22;18004;48.416;10.066;2023-04-01T05:54:03;6.80;99.90
31369;DHT22;18004;48.416;10.066;2023-04-01T05:56:29;6.90;99.90
31369;DHT22;18004;48.416;10.066;2023-04-01T05:58:55;6.90;99.90
31369;DHT22;18004;48.416;10.066;2023-04-01T06:01:21;7.00;99.90
31369;DHT22;18004;48.416;10.066;2023-04-01T06:03:46;7.00;99.90
31369;DHT22;18004;48.416;10.066;2023-04-01T06:06:23;7.00;99.90
31369;DHT22;18004;48.416;10.066;2023-04-01T06:08:49;7.00;99.90
31369;DHT22;18004;48.416;10.066;2023-04-01T06:19:33;7.20;99.90
31369;DHT22;18004;48.416;10.066;2023-04-01T06:32:42;7.50;99.90
31369;DHT22;18004;48.416;10.066;2023-04-01T06:45:55;7.70;99.90
31369;DHT22;18004;48.416;10.066;2023-04-01T06:52:02;7.90;99.90
31369;DHT22;18004;48.416;10.066;2023-04-01T06:54:37;7.90;99.90
31369;DHT22;18004;48.416;10.066;2023-04-01T06:57:34;7.90;99.90
31369;DHT22;18004;48.416;10.066;2023-04-01T07:00:17;7.90;99.90
31369;DHT22;18004;48.416;10.066;2023-04-01T07:02:55;7.90;99.90
31369;DHT22;18004;48.416;10.066;2023-04-01T07:05:24;8.00;99.90
31369;DHT22;18004;48.416;10.066;2023-04-01T07:07:56;8.10;99.90
31369;DHT22;18004;48.416;10.066;2023-04-01T07:10:31;8.20;99.90
31369;DHT22;18004;48.416;10.066;2023-04-01T07:13:02;8.20;99.50
31369;DHT22;18004;48.416;10.066;2023-04-01T07:15:41;8.30;98.90
31369;DHT22;18004;48.416;10.066;2023-04-01T07:18:32;8.30;99.50
31369;DHT22;18004;48.416;10.066;2023-04-01T07:21:00;8.40;98.10
31369;DHT22;18004;48.416;10.066;2023-04-01T07:23:31;8.40;99.00
31369;DHT22;18004;48.416;10.066;2023-04-01T07:26:25;8.40;99.90
31369;DHT22;18004;48.416;10.066;2023-04-01T07:28:52;8.40;99.30
31369;DHT22;18004;48.416;10.066;2023-04-01T07:34:19;8.50;99.70
31369;DHT22;18004;48.416;10.066;2023-04-01T07:36:52;8.60;98.90
31369;DHT22;18004;48.416;10.066;2023-04-01T07:42:28;8.80;98.40
31369;DHT22;18004;48.416;10.066;2023-04-01T07:56:49;8.90;97.00
31369;DHT22;18004;48.416;10.066;2023-04-01T07:59:22;8.90;98.60
31369;DHT22;18004;48.416;10.066;2023-04-01T08:07:17;8.90;96.90
31369;DHT22;18004;48.416;10.066;2023-04-01T08:18:16;8.90;96.80
31369;DHT22;18004;48.416;10.066;2023-04-01T08:20:59;8.90;98.00
31369;DHT22;18004;48.416;10.066;2023-04-01T08:23:33;9.00;99.40
31369;DHT22;18004;48.416;10.066;2023-04-01T08:29:02;8.90;99.80
31369;DHT22;18004;48.416;10.066;2023-04-01T08:31:48;8.90;99.80
31369;DHT22;18004;48.416;10.066;2023-04-01T08:34:19;8.90;99.20
31369;DHT22;18004;48.416;10.066;2023-04-01T08:36:53;8.90;99.90
31369;DHT22;18004;48.416;10.066;2023-04-01T08:42:18;8.90;99.90
31369;DHT22;18004;48.416;10.066;2023-04-01T08:48:25;8.80;99.90
31369;DHT22;18004;48.416;10.066;2023-04-01T08:53:44;8.90;99.90
31369;DHT22;18004;48.416;10.066;2023-04-01T08:56:21;8.90;99.90
31369;DHT22;18004;48.416;10.066;2023-04-01T09:02:04;8.80;99.90
31369;DHT22;18004;48.416;10.066;2023-04-01T09:26:49;8.50;99.90
31369;DHT22;18004;48.416;10.066;2023-04-01T09:54:01;8.40;99.90
31369;DHT22;18004;48.416;10.066;2023-04-01T10:08:03;8.40;99.90
31369;DHT22;18004;48.416;10.066;2023-04-01T10:32:44;8.50;99.90
31369;DHT22;18004;48.416;10.066;2023-04-01T10:43:55;8.70;99.90
31369;DHT22;18004;48.416;10.066;2023-04-01T10:52:12;8.80;99.90
31369;DHT22;18004;48.416;10.066;2023-04-01T11:06:54;8.80;99.90
31369;DHT22;18004;48.416;10.066;2023-04-01T11:23:00;8.80;99.90
31369;DHT22;18004;48.416;10.066;2023-04-01T11:25:42;8.70;99.90
31369;DHT22;18004;48.416;10.066;2023-04-01T11:31:47;8.60;99.90
31369;DHT22;18004;48.416;10.066;2023-04-01T11:37:19;8.50;99.90
31369;DHT22;18004;48.416;10.066;2023-04-01T11:40:01;8.50;99.90
31369;DHT22;18004;48.416;10.066;2023-04-01T11:43:01;8.60;99.90
31369;DHT22;18004;48.416;10.066;2023-04-01T11:45:39;8.50;99.90
31369;DHT22;18004;48.416;10.066;2023-04-01T11:48:32;8.50;99.90
31369;DHT22;18004;48.416;10.066;2023-04-01T11:56:59;8.60;99.90
31369;DHT22;18004;48.416;10.066;2023-04-01T12:02:46;8.60;99.90
31369;DHT22;18004;48.416;10.066;2023-04-01T12:05:38;8.60;99.90
31369;DHT22;18004;48.416;10.066;2023-04-01T12:11:30;8.70;99.90
31369;DHT22;18004;48.416;10.066;2023-04-01T12:14:30;8.80;99.90
31369;DHT22;18004;48.416;10.066;2023-04-01T12:17:08;9.00;99.90
31369;DHT22;18004;48.416;10.066;2023-04-01T12:30:54;9.50;99.90
31369;DHT22;18004;48.416;10.066;2023-04-01T12:33:40;9.50;99.90
31369;DHT22;18004;48.416;10.066;2023-04-01T12:39:11;9.70;99.90
31369;DHT22;18004;48.416;10.066;2023-04-01T12:47:23;9.60;99.90
31369;DHT22;18004;48.416;10.066;2023-04-01T12:55:39;9.50;99.90
31369;DHT22;18004;48.416;10.066;2023-04-01T13:04:11;9.80;99.90
31369;DHT22;18004;48.416;10.066;2023-04-01T13:06:57;9.70;99.90
31369;DHT22;18004;48.416;10.066;2023-04-01T13:09:31;9.70;99.90
31369;DHT22;18004;48.416;10.066;2023-04-01T13:17:16;9.70;99.90
31369;DHT22;18004;48.416;10.066;2023-04-01T13:20:04;9.70;99.90
31369;DHT22;18004;48.416;10.066;2023-04-01T13:25:33;9.70;99.90
31369;DHT22;18004;48.416;10.066;2023-04-01T13:28:26;9.80;99.90
31369;DHT22;18004;48.416;10.066;2023-04-01T13:33:48;9.90;99.90
31369;DHT22;18004;48.416;10.066;2023-04-01T13:45:14;10.10;99.90
31369;DHT22;18004;48.416;10.066;2023-04-01T13:50:46;10.30;99.90
31369;DHT22;18004;48.416;10.066;2023-04-01T13:56:29;10.40;99.90
31369;DHT22;18004;48.416;10.066;2023-04-01T14:12:47;10.50;96.10
31369;DHT22;18004;48.416;10.066;2023-04-01T14:18:22;10.70;93.40
31369;DHT22;18004;48.416;10.066;2023-04-01T14:21:13;10.70;91.40
31369;DHT22;18004;48.416;10.066;2023-04-01T14:50:56;10.70;90.10
31369;DHT22;18004;48.416;10.066;2023-04-01T14:55:59;10.70;82.40
31369;DHT22;18004;48.416;10.066;2023-04-01T14:58:57;10.70;84.00
31369;DHT22;18004;48.416;10.066;2023-04-01T15:04:04;10.60;79.30
31369;DHT22;18004;48.416;10.066;2023-04-01T15:09:45;10.70;75.40
31369;DHT22;18004;48.416;10.066;2023-04-01T15:12:23;10.70;75.90
31369;DHT22;18004;48.416;10.066;2023-04-01T15:15:03;10.60;75.80
31369;DHT22;18004;48.416;10.066;2023-04-01T15:18:07;10.70;75.10
31369;DHT22;18004;48.416;10.066;2023-04-01T15:20:52;10.70;70.40
31369;DHT22;18004;48.416;10.066;2023-04-01T15:23:35;10.70;69.80
31369;DHT22;18004;48.416;10.066;2023-04-01T15:26:26;10.70;71.10
31369;DHT22;18004;48.416;10.066;2023-04-01T15:29:28;10.70;68.10
31369;DHT22;18004;48.416;10.066;2023-04-01T15:40:53;10.70;70.10
31369;DHT22;18004;48.416;10.066;2023-04-01T15:43:48;10.70;68.80
31369;DHT22;18004;48.416;10.066;2023-04-01T15:57:25;10.60;79.40
31369;DHT22;18004;48.416;10.066;2023-04-01T16:16:36;10.20;97.00
31369;DHT22;18004;48.416;10.066;2023-04-01T16:22:40;10.10;98.00
31369;DHT22;18004;48.416;10.066;2023-04-01T16:36:28;9.70;99.90
31369;DHT22;18004;48.416;10.066;2023-04-01T16:41:34;9.60;99.90
31369;DHT22;18004;48.416;10.066;2023-04-01T16:44:23;9.60;99.90
31369;DHT22;18004;48.416;10.066;2023-04-01T16:46:53;9.40;99.90
31369;DHT22;18004;48.416;10.066;2023-04-01T16:49:37;9.40;99.90
31369;DHT22;18004;48.416;10.066;2023-04-01T16:52:15;9.50;99.90
31369;DHT22;18004;48.416;10.066;2023-04-01T16:55:03;9.40;99.90
31369;DHT22;18004;48.416;10.066;2023-04-01T16:57:56;9.40;99.90
31369;DHT22;18004;48.416;10.066;2023-04-01T17:00:30;9.40;99.90
31369;DHT22;18004;48.416;10.066;2023-04-01T17:08:47;9.30;99.90
31369;DHT22;18004;48.416;10.066;2023-04-01T17:11:27;9.20;99.90
31369;DHT22;18004;48.416;10.066;2023-04-01T17:25:50;9.10;99.90
31369;DHT22;18004;48.416;10.066;2023-04-01T17:31:17;9.10;99.90
31369;DHT22;18004;48.416;10.066;2023-04-01T17:34:51;9.10;99.90
31369;DHT22;18004;48.416;10.066;2023-04-01T17:37:05;9.10;99.90
31369;DHT22;18004;48.416;10.066;2023-04-01T17:39:51;9.00;99.90
31369;DHT22;18004;48.416;10.066;2023-04-01T17:45:57;9.00;99.90
31369;DHT22;18004;48.416;10.066;2023-04-01T17:51:53;8.90;99.90
31369;DHT22;18004;48.416;10.066;2023-04-01T17:57:24;8.90;99.90
31369;DHT22;18004;48.416;10.066;2023-04-01T18:17:33;8.70;99.90
31369;DHT22;18004;48.416;10.066;2023-04-01T18:22:55;8.70;99.90
31369;DHT22;18004;48.416;10.066;2023-04-01T18:25:41;8.70;99.90
31369;DHT22;18004;48.416;10.066;2023-04-01T18:31:34;8.60;99.90
31369;DHT22;18004;48.416;10.066;2023-04-01T18:36:40;8.60;99.90
31369;DHT22;18004;48.416;10.066;2023-04-01T18:39:21;8.50;99.90
31369;DHT22;18004;48.416;10.066;2023-04-01T18:42:03;8.50;99.90
31369;DHT22;18004;48.416;10.066;2023-04-01T18:44:41;8.50;99.90
31369;DHT22;18004;48.416;10.066;2023-04-01T18:50:06;8.40;99.90
31369;DHT22;18004;48.416;10.066;2023-04-01T18:52:40;8.40;99.90
31369;DHT22;18004;48.416;10.066;2023-04-01T18:55:31;8.40;99.90
31369;DHT22;18004;48.416;10.066;2023-04-01T19:03:37;8.40;99.90
31369;DHT22;18004;48.416;10.066;2023-04-01T19:06:23;8.30;99.90
31369;DHT22;18004;48.416;10.066;2023-04-01T19:08:52;8.40;99.90
31369;DHT22;18004;48.416;10.066;2023-04-01T19:20:06;8.30;99.90
31369;DHT22;18004;48.416;10.066;2023-04-01T19:22:51;8.30;99.90
31369;DHT22;18004;48.416;10.066;2023-04-01T19:25:27;8.30;99.90
31369;DHT22;18004;48.416;10.066;2023-04-01T19:31:22;8.30;99.90
31369;DHT22;18004;48.416;10.066;2023-04-01T19:48:30;8.30;99.90
31369;DHT22;18004;48.416;10.066;2023-04-01T19:51:19;8.20;99.90
31369;DHT22;18004;48.416;10.066;2023-04-01T19:54:04;8.20;99.90
31369;DHT22;18004;48.416;10.066;2023-04-01T20:02:53;8.20;99.90
31369;DHT22;18004;48.416;10.066;2023-04-01T20:05:35;8.20;99.90
31369;DHT22;18004;48.416;10.066;2023-04-01T20:16:22;8.20;99.90
31369;DHT22;18004;48.416;10.066;2023-04-01T20:21:27;8.20;99.90
31369;DHT22;18004;48.416;10.066;2023-04-01T20:24:20;8.20;99.90
31369;DHT22;18004;48.416;10.066;2023-04-01T20:26:51;8.20;99.90
31369;DHT22;18004;48.416;10.066;2023-04-01T20:29:27;8.20;99.90
31369;DHT22;18004;48.416;10.066;2023-04-01T20:32:17;8.20;99.90
31369;DHT22;18004;48.416;10.066;2023-04-01T20:37:23;8.20;99.90
31369;DHT22;18004;48.416;10.066;2023-04-01T20:40:08;8.10;99.90
31369;DHT22;18004;48.416;10.066;2023-04-01T20:45:42;8.10;99.90
31369;DHT22;18004;48.416;10.066;2023-04-01T20:51:12;7.90;99.90
31369;DHT22;18004;48.416;10.066;2023-04-01T20:54:15;7.90;99.90
31369;DHT22;18004;48.416;10.066;2023-04-01T20:57:05;7.90;99.90
31369;DHT22;18004;48.416;10.066;2023-04-01T21:02:37;7.80;99.90
31369;DHT22;18004;48.416;10.066;2023-04-01T21:05:30;7.70;99.90
31369;DHT22;18004;48.416;10.066;2023-04-01T21:13:41;7.60;99.90
31369;DHT22;18004;48.416;10.066;2023-04-01T21:24:32;7.40;99.90
31369;DHT22;18004;48.416;10.066;2023-04-01T21:30:17;7.30;99.90
31369;DHT22;18004;48.416;10.066;2023-04-01T21:41:34;7.20;99.90
31369;DHT22;18004;48.416;10.066;2023-04-01T21:44:20;7.10;99.90
31369;DHT22;18004;48.416;10.066;2023-04-01T21:47:24;7.10;99.90
31369;DHT22;18004;48.416;10.066;2023-04-01T21:55:56;6.90;99.90
31369;DHT22;18004;48.416;10.066;2023-04-01T22:07:38;6.70;99.90
31369;DHT22;18004;48.416;10.066;2023-04-01T22:13:17;6.70;99.90
31369;DHT22;18004;48.416;10.066;2023-04-01T22:21:24;6.70;99.90
31369;DHT22;18004;48.416;10.066;2023-04-01T22:24:04;6.70;99.90
31369;DHT22;18004;48.416;10.066;2023-04-01T22:26:46;6.70;99.90
31369;DHT22;18004;48.416;10.066;2023-04-01T22:29:30;6.80;99.90
31369;DHT22;18004;48.416;10.066;2023-04-01T22:32:08;6.70;99.90
31369;DHT22;18004;48.416;10.066;2023-04-01T22:34:56;6.70;99.90
31369;DHT22;18004;48.416;10.066;2023-04-01T22:40:39;6.70;99.90
31369;DHT22;18004;48.416;10.066;2023-04-01T22:45:59;6.70;99.90
31369;DHT22;18004;48.416;10.066;2023-04-01T22:48:41;6.70;99.90
31369;DHT22;18004;48.416;10.066;2023-04-01T22:57:31;6.80;99.90
31369;DHT22;18004;48.416;10.066;2023-04-01T23:00:06;6.80;99.90
31369;DHT22;18004;48.416;10.066;2023-04-01T23:03:04;6.80;99.90
31369;DHT22;18004;48.416;10.066;2023-04-01T23:05:35;6.80;99.90
31369;DHT22;18004;48.416;10.066;2023-04-01T23:10:53;6.80;99.90
31369;DHT22;18004;48.416;10.066;2023-04-01T23:13:26;6.80;99.90
31369;DHT22;18004;48.416;10.066;2023-04-01T23:15:54;6.80;99.90
31369;DHT22;18004;48.416;10.066;2023-04-01T23:21:46;6.80;99.90
31369;DHT22;18004;48.416;10.066;2023-04-01T23:27:31;6.80;99.90
31369;DHT22;18004;48.416;10.066;2023-04-01T23:30:01;6.80;99.90
31369;DHT22;18004;48.416;10.066;2023-04-01T23:32:27;6.80;99.90
31369;DHT22;18004;48.416;10.066;2023-04-01T23:35:02;6.80;99.90
31369;DHT22;18004;48.416;10.066;2023-04-01T23:37:28;6.80;99.90
31369;DHT22;18004;48.416;10.066;2023-04-01T23:39:57;6.80;99.90
31369;DHT22;18004;48.416;10.066;2023-04-01T23:42:26;6.70;99.90
31369;DHT22;18004;48.416;10.066;2023-04-01T23:44:55;6.70;99.90
31369;DHT22;18004;48.416;10.066;2023-04-01T23:47:33;6.70;99.90
31369;DHT22;18004;48.416;10.066;2023-04-01T23:50:17;6.70;99.90
31369;DHT22;18004;48.416;10.066;2023-04-01T23:52:54;6.70;99.90
31369;DHT22;18004;48.416;10.066;2023-04-01T23:55:26;6.70;99.90
31369;DHT22;18004;48.416;10.066;2023-04-01T23:58:27;6.70;99.90
